Terminal Aerodrome Forecast
Issued by NWS

Home | Current Version | Previous Version | Text Only | Print | Product List | Glossary On
Versions: 1 2 3 4 5 6 7 8 9 10 11 12 13 14 15
000
FTUS43 KMKX 190520
TAFENW
TAF
KENW 190520Z 1906/2006 23009KT P6SM SKC WS020/25040KT
     FM190900 27006KT P6SM FEW250
     FM191500 30006KT P6SM FEW250
     FM191900 26007KT P6SM SKC
     FM192000 23007KT P6SM SKC
     FM192100 20007KT P6SM SKC=

USA.gov is the U.S. government's official web portal to all federal, state and local government web resources and services.